createdAt,value
2019-01-28T00:02:09.344Z,5.50
2019-01-28T00:04:37.652Z,5.00
2019-01-28T00:07:06.526Z,4.60
2019-01-28T00:09:34.984Z,5.27
2019-01-28T00:12:04.212Z,6.07
2019-01-28T00:14:32.685Z,4.50
2019-01-28T00:17:01.142Z,4.97
2019-01-28T00:19:30.001Z,5.13
2019-01-28T00:21:58.906Z,5.27
2019-01-28T00:24:27.424Z,4.40
2019-01-28T00:26:56.006Z,4.73
2019-01-28T00:29:24.592Z,4.33
2019-01-28T00:31:53.489Z,4.50
2019-01-28T00:34:22.022Z,4.17
2019-01-28T00:36:50.797Z,4.10
2019-01-28T00:39:19.591Z,3.73
2019-01-28T00:41:48.430Z,3.97
2019-01-28T00:44:17.240Z,3.83
2019-01-28T00:46:45.704Z,3.83
2019-01-28T00:49:14.499Z,3.47
2019-01-28T00:51:44.356Z,4.57
2019-01-28T00:54:12.794Z,4.67
2019-01-28T00:56:41.248Z,4.23
2019-01-28T00:59:10.063Z,3.90
2019-01-28T01:01:39.139Z,3.03
2019-01-28T01:04:09.578Z,3.63
2019-01-28T01:06:38.126Z,3.60
2019-01-28T01:09:08.606Z,4.00
2019-01-28T01:11:37.049Z,4.43
2019-01-28T01:14:05.506Z,3.80
2019-01-28T01:16:34.214Z,4.10
2019-01-28T01:19:03.224Z,3.73
2019-01-28T01:21:32.425Z,3.83
2019-01-28T01:24:01.560Z,4.00
2019-01-28T01:26:30.092Z,5.00
2019-01-28T01:28:59.096Z,3.63
2019-01-28T01:31:27.885Z,3.97
2019-01-28T01:33:56.678Z,3.73
2019-01-28T01:36:25.184Z,3.03
2019-01-28T01:38:53.872Z,3.73
2019-01-28T01:41:22.599Z,4.20
2019-01-28T01:43:51.385Z,4.10
2019-01-28T01:46:20.406Z,4.37
2019-01-28T01:48:49.169Z,4.40
2019-01-28T01:51:17.966Z,4.50
2019-01-28T01:53:46.434Z,5.57
2019-01-28T01:56:15.094Z,4.73
2019-01-28T01:58:43.913Z,4.23
2019-01-28T02:01:12.437Z,4.93
2019-01-28T02:03:40.880Z,5.77
2019-01-28T02:06:09.860Z,5.67
2019-01-28T02:08:38.784Z,4.33
2019-01-28T02:11:07.361Z,4.07
2019-01-28T02:13:36.157Z,2.70
2019-01-28T02:16:04.916Z,3.63
2019-01-28T02:18:33.740Z,3.77
2019-01-28T02:21:02.521Z,4.13
2019-01-28T02:23:33.305Z,3.10
2019-01-28T02:26:01.821Z,2.20
2019-01-28T02:28:32.616Z,3.80
2019-01-28T02:31:01.340Z,2.20
2019-01-28T02:33:30.156Z,2.80
2019-01-28T02:35:58.657Z,2.40
2019-01-28T02:38:27.421Z,2.10
2019-01-28T02:40:56.188Z,2.10
2019-01-28T02:43:24.621Z,1.67
2019-01-28T02:45:53.446Z,2.10
2019-01-28T02:48:22.132Z,2.53
2019-01-28T02:50:50.869Z,1.43
2019-01-28T02:53:19.364Z,1.80
2019-01-28T02:55:48.093Z,2.27
2019-01-28T02:58:16.847Z,2.50
2019-01-28T03:00:45.630Z,1.57
2019-01-28T03:03:14.541Z,2.07
2019-01-28T03:05:43.348Z,1.97
2019-01-28T03:08:12.269Z,2.33
2019-01-28T03:10:41.113Z,1.50
2019-01-28T03:13:09.884Z,1.70
2019-01-28T03:15:38.782Z,2.53
2019-01-28T03:18:07.550Z,1.40
2019-01-28T03:20:36.361Z,1.90
2019-01-28T03:23:05.785Z,1.97
2019-01-28T03:25:34.549Z,1.97
2019-01-28T03:28:03.341Z,1.90
2019-01-28T03:30:31.882Z,2.70
2019-01-28T03:33:00.332Z,2.20
2019-01-28T03:35:29.189Z,1.90
2019-01-28T03:37:57.945Z,2.77
2019-01-28T03:40:26.385Z,3.10
2019-01-28T03:42:55.854Z,2.40
2019-01-28T03:45:24.409Z,2.60
2019-01-28T03:47:53.221Z,3.43
2019-01-28T03:50:22.385Z,2.40
2019-01-28T03:52:51.193Z,2.60
2019-01-28T03:55:20.058Z,2.17
2019-01-28T03:57:48.881Z,2.30
2019-01-28T04:00:23.204Z,2.93
2019-01-28T04:02:52.080Z,2.57
2019-01-28T04:05:20.950Z,2.57
2019-01-28T04:07:49.485Z,2.23
2019-01-28T04:10:22.971Z,2.70
2019-01-28T04:12:51.571Z,4.20
2019-01-28T04:15:21.974Z,1.93
2019-01-28T04:17:50.497Z,1.87
2019-01-28T04:20:20.525Z,1.80
2019-01-28T04:22:48.996Z,2.27
2019-01-28T04:25:17.641Z,3.03
2019-01-28T04:27:46.163Z,2.40
2019-01-28T04:30:17.657Z,2.73
2019-01-28T04:32:46.659Z,2.07
2019-01-28T04:35:15.617Z,1.93
2019-01-28T04:37:44.393Z,1.70
2019-01-28T04:40:14.874Z,1.87
2019-01-28T04:42:43.645Z,2.07
2019-01-28T04:45:15.314Z,1.40
2019-01-28T04:47:44.102Z,1.63
2019-01-28T04:50:15.127Z,1.67
2019-01-28T04:52:43.890Z,1.60
2019-01-28T04:55:14.133Z,1.40
2019-01-28T04:57:42.811Z,2.17
2019-01-28T05:00:14.505Z,1.57
2019-01-28T05:02:42.937Z,2.17
2019-01-28T05:05:12.023Z,1.73
2019-01-28T05:07:40.525Z,1.97
2019-01-28T05:10:12.098Z,1.50
2019-01-28T05:12:40.827Z,2.60
2019-01-28T05:15:12.207Z,2.20
2019-01-28T05:17:40.907Z,2.33
2019-01-28T05:20:15.551Z,2.77
2019-01-28T05:22:44.395Z,2.47
2019-01-28T05:25:14.935Z,3.10
2019-01-28T05:27:43.687Z,3.00
2019-01-28T05:30:15.171Z,2.83
2019-01-28T05:32:43.926Z,2.70
2019-01-28T05:35:15.105Z,2.63
2019-01-28T05:37:43.961Z,3.20
2019-01-28T05:40:15.848Z,3.27
2019-01-28T05:42:44.602Z,2.97
2019-01-28T05:45:18.520Z,2.70
2019-01-28T05:47:46.963Z,2.60
2019-01-28T05:50:15.830Z,3.80
2019-01-28T05:52:44.729Z,2.30
2019-01-28T05:55:15.707Z,2.87
2019-01-28T05:57:44.711Z,2.47
2019-01-28T06:00:24.494Z,2.13
2019-01-28T06:02:53.218Z,1.90
2019-01-28T06:05:22.328Z,1.73
2019-01-28T06:07:50.822Z,2.13
2019-01-28T06:10:19.715Z,1.73
2019-01-28T06:12:48.578Z,2.10
2019-01-28T06:15:19.439Z,2.00
2019-01-28T06:17:47.948Z,2.10
2019-01-28T06:20:19.541Z,2.33
2019-01-28T06:22:48.356Z,2.07
2019-01-28T06:25:17.212Z,2.60
2019-01-28T06:27:45.766Z,2.00
2019-01-28T06:30:26.171Z,2.80
2019-01-28T06:32:54.870Z,2.80
2019-01-28T06:35:23.736Z,1.97
2019-01-28T06:37:52.668Z,2.10
2019-01-28T06:40:27.074Z,2.03
2019-01-28T06:42:55.858Z,2.07
2019-01-28T06:45:24.561Z,2.73
2019-01-28T06:47:53.368Z,2.37
2019-01-28T06:50:22.682Z,2.63
2019-01-28T06:52:51.423Z,2.50
2019-01-28T06:55:20.915Z,1.47
2019-01-28T06:57:49.875Z,3.03
2019-01-28T07:00:24.586Z,4.30
2019-01-28T07:02:54.244Z,2.03
2019-01-28T07:05:22.845Z,2.83
2019-01-28T07:07:51.315Z,2.27
2019-01-28T07:10:20.072Z,2.37
2019-01-28T07:12:48.516Z,3.40
2019-01-28T07:15:19.919Z,3.03
2019-01-28T07:17:54.675Z,3.47
2019-01-28T07:20:21.872Z,2.60
2019-01-28T07:22:50.426Z,2.67
2019-01-28T07:25:19.282Z,2.77
2019-01-28T07:27:48.124Z,2.30
2019-01-28T07:30:23.452Z,2.07
2019-01-28T07:32:53.240Z,2.83
2019-01-28T07:35:22.100Z,2.13
2019-01-28T07:37:50.609Z,2.50
2019-01-28T07:40:19.700Z,2.03
2019-01-28T07:42:48.424Z,2.93
2019-01-28T07:45:20.365Z,2.33
2019-01-28T07:47:48.806Z,2.03
2019-01-28T07:50:17.362Z,3.47
2019-01-28T07:52:45.816Z,2.20
2019-01-28T07:55:14.619Z,2.40
2019-01-28T07:57:43.557Z,2.97
2019-01-28T08:00:23.977Z,2.40
2019-01-28T08:02:54.040Z,2.30
2019-01-28T08:05:22.959Z,2.93
2019-01-28T08:07:51.781Z,2.27
2019-01-28T08:10:21.310Z,2.27
2019-01-28T08:12:51.188Z,2.63
2019-01-28T08:15:22.472Z,2.70
2019-01-28T08:17:51.068Z,2.60
2019-01-28T08:20:20.458Z,3.10
2019-01-28T08:22:49.504Z,3.03
2019-01-28T08:25:20.032Z,3.17
2019-01-28T08:27:50.670Z,2.97
2019-01-28T08:30:22.084Z,4.40
2019-01-28T08:32:50.812Z,3.30
2019-01-28T08:35:19.913Z,3.07
2019-01-28T08:37:48.371Z,3.13
2019-01-28T08:40:19.304Z,2.90
2019-01-28T08:42:48.167Z,3.47
2019-01-28T08:45:17.094Z,2.90
2019-01-28T08:47:45.989Z,3.20
2019-01-28T08:50:22.465Z,2.90
2019-01-28T08:52:51.333Z,2.60
2019-01-28T08:55:24.683Z,2.53
2019-01-28T08:57:53.532Z,2.37
2019-01-28T09:00:24.777Z,2.27
2019-01-28T09:02:53.492Z,2.63
2019-01-28T09:05:22.615Z,2.47
2019-01-28T09:07:51.444Z,2.83
2019-01-28T09:10:23.713Z,2.90
2019-01-28T09:12:52.499Z,3.63
2019-01-28T09:15:22.605Z,2.50
2019-01-28T09:17:51.301Z,3.40
2019-01-28T09:20:22.133Z,2.97
2019-01-28T09:22:51.029Z,2.53
2019-01-28T09:25:19.931Z,2.77
2019-01-28T09:27:48.798Z,2.70
2019-01-28T09:30:34.025Z,2.90
2019-01-28T09:33:02.468Z,3.33
2019-01-28T09:35:32.361Z,3.23
2019-01-28T09:38:00.973Z,2.77
2019-01-28T09:40:32.564Z,3.00
2019-01-28T09:43:01.009Z,3.47
2019-01-28T09:45:32.007Z,2.90
2019-01-28T09:48:00.809Z,3.27
2019-01-28T09:50:29.890Z,2.63
2019-01-28T09:52:59.254Z,3.43
2019-01-28T09:55:27.922Z,3.47
2019-01-28T09:57:56.598Z,2.80
2019-01-28T10:00:28.157Z,2.80
2019-01-28T10:02:57.299Z,2.23
2019-01-28T10:05:25.886Z,2.40
2019-01-28T10:07:54.807Z,2.33
2019-01-28T10:10:23.507Z,2.90
2019-01-28T10:12:52.366Z,1.93
2019-01-28T10:15:22.271Z,2.20
2019-01-28T10:17:50.789Z,3.30
2019-01-28T10:20:32.460Z,2.40
2019-01-28T10:23:01.429Z,2.40
2019-01-28T10:25:30.041Z,2.30
2019-01-28T10:27:58.858Z,3.10
2019-01-28T10:30:35.873Z,2.67
2019-01-28T10:33:05.277Z,3.03
2019-01-28T10:35:36.025Z,3.10
2019-01-28T10:38:05.219Z,2.73
2019-01-28T10:40:36.524Z,3.17
2019-01-28T10:43:06.107Z,3.03
2019-01-28T10:45:34.545Z,3.47
2019-01-28T10:48:03.425Z,3.33
2019-01-28T10:50:32.415Z,3.40
2019-01-28T10:53:01.203Z,2.77
2019-01-28T10:55:31.260Z,2.90
2019-01-28T10:57:59.869Z,2.87
2019-01-28T11:00:46.115Z,3.10
2019-01-28T11:03:16.588Z,3.67
2019-01-28T11:05:45.557Z,3.40
2019-01-28T11:08:14.019Z,4.33
2019-01-28T11:10:42.585Z,3.17
2019-01-28T11:13:11.122Z,4.43
2019-01-28T11:15:39.809Z,3.43
2019-01-28T11:18:11.789Z,3.02
2019-01-28T11:20:40.738Z,3.83
2019-01-28T11:23:09.502Z,3.10
2019-01-28T11:25:38.298Z,3.10
2019-01-28T11:28:07.349Z,3.08
2019-01-28T11:30:43.725Z,4.37
2019-01-28T11:33:13.786Z,2.90
2019-01-28T11:35:42.924Z,3.00
2019-01-28T11:38:13.066Z,3.33
2019-01-28T11:40:45.781Z,3.42
2019-01-28T11:43:17.889Z,3.47
2019-01-28T11:45:50.221Z,3.67
2019-01-28T11:48:19.098Z,2.62
2019-01-28T11:50:55.669Z,2.70
2019-01-28T11:53:18.684Z,2.33
2019-01-28T11:55:48.298Z,2.87
2019-01-28T11:58:17.203Z,2.83
2019-01-28T12:00:53.209Z,2.10
2019-01-28T12:03:22.863Z,2.52
2019-01-28T12:05:51.728Z,2.58
2019-01-28T12:08:20.855Z,2.35
2019-01-28T12:10:49.606Z,2.95
2019-01-28T12:13:18.416Z,2.02
2019-01-28T12:15:49.709Z,2.40
2019-01-28T12:18:18.148Z,1.77
2019-01-28T12:20:53.456Z,2.15
2019-01-28T12:23:18.574Z,1.55
2019-01-28T12:25:48.554Z,1.98
2019-01-28T12:28:17.676Z,1.98
2019-01-28T12:30:46.689Z,2.40
2019-01-28T12:33:15.138Z,2.22
2019-01-28T12:35:43.976Z,1.80
2019-01-28T12:38:12.413Z,1.60
2019-01-28T12:40:41.200Z,2.27
2019-01-28T12:43:09.680Z,1.42
2019-01-28T12:45:38.488Z,1.87
2019-01-28T12:48:07.348Z,1.62
2019-01-28T12:50:35.972Z,2.25
2019-01-28T12:53:04.780Z,1.60
2019-01-28T12:55:34.146Z,2.22
2019-01-28T12:58:04.585Z,2.15
2019-01-28T13:00:36.210Z,1.42
2019-01-28T13:03:06.022Z,1.65
2019-01-28T13:05:34.800Z,1.72
2019-01-28T13:08:05.056Z,1.72
2019-01-28T13:10:33.920Z,1.77
2019-01-28T13:13:02.476Z,2.10
2019-01-28T13:15:37.055Z,1.92
2019-01-28T13:18:05.918Z,1.98
2019-01-28T13:20:35.043Z,2.50
2019-01-28T13:23:03.580Z,2.20
2019-01-28T13:25:36.798Z,1.35
2019-01-28T13:28:07.219Z,1.70
2019-01-28T13:30:40.111Z,1.70
2019-01-28T13:33:11.316Z,2.02
2019-01-28T13:35:40.109Z,2.02
2019-01-28T13:38:10.511Z,2.00
2019-01-28T13:40:39.084Z,2.17
2019-01-28T13:43:08.902Z,2.25
2019-01-28T13:45:38.927Z,3.15
2019-01-28T13:48:10.166Z,2.25
2019-01-28T13:50:38.860Z,2.22
2019-01-28T13:53:07.665Z,2.80
2019-01-28T13:55:36.128Z,2.37
2019-01-28T13:58:04.938Z,2.37
2019-01-28T14:00:33.816Z,2.27
2019-01-28T14:03:02.736Z,2.37
2019-01-28T14:05:31.460Z,2.85
2019-01-28T14:08:00.083Z,2.12
2019-01-28T14:10:28.725Z,2.77
2019-01-28T14:12:57.281Z,2.75
2019-01-28T14:15:36.994Z,2.45
2019-01-28T14:18:07.374Z,2.25
2019-01-28T14:20:38.286Z,2.90
2019-01-28T14:23:07.079Z,1.82
2019-01-28T14:25:36.442Z,2.25
2019-01-28T14:28:07.990Z,2.40
2019-01-28T14:30:39.445Z,2.08
2019-01-28T14:33:08.361Z,2.00
2019-01-28T14:35:37.913Z,3.02
2019-01-28T14:38:07.921Z,1.60
2019-01-28T14:40:37.735Z,2.10
2019-01-28T14:43:06.309Z,2.35
2019-01-28T14:45:34.932Z,1.80
2019-01-28T14:48:04.226Z,2.00
2019-01-28T14:50:34.657Z,1.90
2019-01-28T14:53:03.275Z,1.82
2019-01-28T14:55:32.342Z,1.97
2019-01-28T14:58:01.040Z,1.62
2019-01-28T15:00:33.829Z,1.20
2019-01-28T15:03:04.728Z,1.33
2019-01-28T15:05:33.889Z,1.30
2019-01-28T15:08:02.390Z,1.50
2019-01-28T15:10:31.823Z,1.37
2019-01-28T15:13:00.329Z,1.33
2019-01-28T15:15:36.849Z,1.73
2019-01-28T15:18:06.608Z,1.17
2019-01-28T15:20:35.442Z,1.40
2019-01-28T15:23:04.137Z,1.20
2019-01-28T15:25:35.313Z,1.63
2019-01-28T15:28:04.379Z,2.00
2019-01-28T15:30:33.336Z,1.27
2019-01-28T15:33:01.943Z,1.77
2019-01-28T15:35:31.337Z,1.33
2019-01-28T15:38:00.380Z,1.10
2019-01-28T15:40:32.209Z,1.63
2019-01-28T15:43:01.175Z,1.20
2019-01-28T15:45:35.136Z,0.93
2019-01-28T15:48:04.043Z,1.17
2019-01-28T15:50:32.843Z,0.90
2019-01-28T15:53:01.380Z,0.97
2019-01-28T15:55:33.961Z,1.50
2019-01-28T15:58:02.849Z,0.83
2019-01-28T16:00:33.442Z,1.10
2019-01-28T16:03:03.956Z,1.00
2019-01-28T16:05:32.841Z,1.00
2019-01-28T16:08:01.348Z,0.90
2019-01-28T16:10:29.873Z,0.90
2019-01-28T16:12:58.427Z,1.30
2019-01-28T16:15:32.112Z,1.10
2019-01-28T16:18:00.835Z,1.20
2019-01-28T16:20:29.421Z,1.87
2019-01-28T16:22:58.221Z,1.33
2019-01-28T16:25:26.661Z,1.60
2019-01-28T16:27:55.527Z,1.40
2019-01-28T16:30:29.399Z,1.17
2019-01-28T16:32:58.545Z,1.17
2019-01-28T16:35:27.957Z,1.50
2019-01-28T16:37:56.897Z,1.87
2019-01-28T16:40:30.338Z,1.30
2019-01-28T16:42:59.516Z,1.77
2019-01-28T16:45:28.613Z,1.37
2019-01-28T16:47:57.118Z,2.30
2019-01-28T16:50:28.527Z,1.80
2019-01-28T16:52:57.213Z,1.97
2019-01-28T16:55:26.224Z,1.10
2019-01-28T16:57:55.916Z,1.70
2019-01-28T17:00:30.186Z,1.60
2019-01-28T17:02:58.730Z,1.67
2019-01-28T17:05:27.781Z,1.30
2019-01-28T17:07:56.307Z,2.43
2019-01-28T17:10:25.092Z,1.47
2019-01-28T17:12:53.615Z,1.67
2019-01-28T17:15:24.837Z,1.80
2019-01-28T17:17:53.388Z,2.13
2019-01-28T17:20:35.550Z,2.17
2019-01-28T17:23:01.078Z,1.90
2019-01-28T17:25:38.819Z,1.90
2019-01-28T17:28:08.102Z,2.07
2019-01-28T17:30:39.179Z,1.90
2019-01-28T17:33:09.147Z,1.97
2019-01-28T17:35:38.157Z,2.60
2019-01-28T17:38:07.749Z,2.03
2019-01-28T17:40:37.194Z,2.90
2019-01-28T17:43:06.822Z,2.20
2019-01-28T17:45:35.748Z,1.63
2019-01-28T17:48:05.349Z,1.87
2019-01-28T17:50:33.941Z,2.13
2019-01-28T17:53:02.411Z,1.80
2019-01-28T17:55:51.913Z,1.60
2019-01-28T17:58:20.506Z,1.43
2019-01-28T18:00:50.838Z,2.13
2019-01-28T18:03:19.680Z,1.57
2019-01-28T18:05:48.484Z,1.90
2019-01-28T18:08:16.931Z,1.73
2019-01-28T18:10:45.480Z,1.63
2019-01-28T18:13:13.926Z,1.77
2019-01-28T18:15:44.333Z,1.50
2019-01-28T18:18:13.050Z,1.40
2019-01-28T18:20:41.498Z,1.73
2019-01-28T18:23:11.920Z,2.27
2019-01-28T18:25:40.634Z,1.77
2019-01-28T18:28:09.084Z,2.20
2019-01-28T18:30:45.618Z,1.57
2019-01-28T18:33:14.200Z,1.70
2019-01-28T18:35:42.939Z,1.80
2019-01-28T18:38:12.656Z,1.80
2019-01-28T18:40:41.210Z,2.10
2019-01-28T18:43:10.130Z,1.50
2019-01-28T18:45:39.094Z,2.23
2019-01-28T18:48:08.667Z,2.90
2019-01-28T18:50:37.350Z,2.20
2019-01-28T18:53:06.176Z,2.50
2019-01-28T18:55:34.893Z,3.37
2019-01-28T18:58:03.898Z,3.53
2019-01-28T19:00:33.729Z,4.20
2019-01-28T19:03:02.244Z,2.87
2019-01-28T19:05:41.300Z,2.70
2019-01-28T19:08:28.036Z,3.50
2019-01-28T19:10:58.216Z,4.37
2019-01-28T19:13:28.704Z,3.93
2019-01-28T19:16:01.240Z,4.00
2019-01-28T19:18:31.362Z,2.93
2019-01-28T19:21:07.733Z,2.33
2019-01-28T19:23:31.901Z,2.63
2019-01-28T19:26:00.648Z,3.47
2019-01-28T19:28:29.458Z,2.40
2019-01-28T19:30:58.265Z,3.13
2019-01-28T19:33:27.108Z,2.90
2019-01-28T19:35:55.896Z,3.07
2019-01-28T19:38:24.738Z,3.53
2019-01-28T19:40:53.603Z,3.53
2019-01-28T19:43:22.062Z,3.57
2019-01-28T19:45:50.864Z,3.90
2019-01-28T19:48:19.403Z,5.43
2019-01-28T19:50:47.887Z,5.63
2019-01-28T19:53:17.985Z,5.13
2019-01-28T19:55:46.572Z,4.07
2019-01-28T19:58:15.028Z,5.10
2019-01-28T20:00:43.763Z,4.83
2019-01-28T20:03:12.773Z,5.10
2019-01-28T20:05:41.250Z,4.73
2019-01-28T20:08:10.122Z,4.53
2019-01-28T20:10:38.911Z,5.33
2019-01-28T20:13:07.700Z,5.17
2019-01-28T20:15:36.592Z,5.23
2019-01-28T20:18:05.394Z,5.10
2019-01-28T20:20:33.993Z,7.13
2019-01-28T20:23:02.520Z,5.77
2019-01-28T20:25:31.110Z,5.37
2019-01-28T20:27:59.902Z,4.50
2019-01-28T20:30:28.797Z,4.53
2019-01-28T20:32:57.628Z,4.10
2019-01-28T20:35:26.497Z,4.17
2019-01-28T20:37:55.678Z,3.70
2019-01-28T20:40:24.129Z,3.53
2019-01-28T20:42:54.060Z,4.20
2019-01-28T20:45:26.007Z,4.00
2019-01-28T20:47:55.599Z,2.70
2019-01-28T20:50:27.086Z,3.67
2019-01-28T20:52:57.068Z,3.17
2019-01-28T20:55:25.728Z,3.60
2019-01-28T20:57:54.243Z,3.33
2019-01-28T21:00:29.656Z,3.10
2019-01-28T21:02:59.669Z,3.10
2019-01-28T21:05:28.251Z,3.30
2019-01-28T21:07:58.193Z,3.93
2019-01-28T21:10:28.547Z,3.83
2019-01-28T21:12:58.938Z,3.27
2019-01-28T21:15:27.592Z,3.20
2019-01-28T21:17:56.437Z,3.67
2019-01-28T21:20:24.951Z,3.20
2019-01-28T21:22:53.429Z,3.67
2019-01-28T21:25:24.326Z,3.80
2019-01-28T21:27:53.348Z,3.60
2019-01-28T21:30:27.449Z,3.20
2019-01-28T21:32:56.097Z,4.20
2019-01-28T21:35:38.369Z,3.90
2019-01-28T21:38:08.528Z,4.17
2019-01-28T21:40:37.341Z,4.97
2019-01-28T21:43:06.121Z,6.40
2019-01-28T21:45:34.684Z,5.20
2019-01-28T21:48:04.037Z,5.70
2019-01-28T21:50:33.745Z,4.27
2019-01-28T21:53:02.198Z,4.40
2019-01-28T21:55:30.645Z,5.03
2019-01-28T21:57:59.752Z,5.63
2019-01-28T22:00:30.096Z,6.07
2019-01-28T22:02:58.367Z,4.93
2019-01-28T22:05:27.181Z,4.27
2019-01-28T22:07:56.347Z,4.33
2019-01-28T22:10:25.462Z,5.00
2019-01-28T22:12:54.697Z,3.90
2019-01-28T22:15:23.314Z,4.27
2019-01-28T22:17:51.775Z,3.07
2019-01-28T22:20:20.253Z,4.90
2019-01-28T22:22:49.368Z,3.93
2019-01-28T22:25:18.306Z,3.37
2019-01-28T22:27:46.887Z,3.33
2019-01-28T22:30:21.193Z,2.63
2019-01-28T22:32:52.305Z,3.33
2019-01-28T22:35:22.661Z,2.80
2019-01-28T22:37:55.184Z,3.33
2019-01-28T22:40:24.020Z,3.10
2019-01-28T22:42:52.856Z,2.80
2019-01-28T22:45:22.076Z,2.80
2019-01-28T22:47:51.226Z,3.13
2019-01-28T22:50:21.673Z,2.60
2019-01-28T22:52:50.315Z,3.47
2019-01-28T22:55:22.817Z,3.10
2019-01-28T22:57:51.760Z,3.67
2019-01-28T23:00:39.781Z,3.57
2019-01-28T23:03:09.549Z,3.03
2019-01-28T23:05:38.595Z,3.23
2019-01-28T23:08:07.352Z,2.80
2019-01-28T23:10:36.456Z,2.87
2019-01-28T23:13:06.104Z,3.13
2019-01-28T23:15:37.593Z,3.37
2019-01-28T23:18:07.584Z,2.60
2019-01-28T23:20:36.598Z,3.07
2019-01-28T23:23:05.730Z,2.70
2019-01-28T23:25:34.195Z,3.60
2019-01-28T23:28:02.640Z,6.73
2019-01-28T23:30:31.444Z,6.93
2019-01-28T23:33:00.350Z,5.97
2019-01-28T23:35:28.815Z,4.73
2019-01-28T23:37:57.628Z,3.00
2019-01-28T23:40:26.317Z,3.10
2019-01-28T23:42:55.018Z,3.20
2019-01-28T23:45:23.978Z,3.57
2019-01-28T23:47:53.251Z,2.60
2019-01-28T23:50:23.282Z,2.97
2019-01-28T23:52:52.016Z,2.17
2019-01-28T23:55:20.794Z,2.60
2019-01-28T23:57:56.635Z,2.50
